Time;durP1;ratioP1;P1;durP2;ratioP2;P2;SDS_P1;SDS_P2;PMS_P1;PMS_P2;Temp;Humidity;BMP_temperature;BMP_pressure;BME280_temperature;BME280_humidity;BME280_pressure;Samples;Min_cycle;Max_cycle;Signal;HPM_P1;HPM_P2
2022/05/30 00:02:10;;;;;;;;;;;;;;;17.05;100.00;98559.41;5027493;28;19921;-56
2022/05/30 00:04:35;;;;;;;;;;;;;;;17.02;100.00;98554.44;5029221;28;19921;-57
2022/05/30 00:07:01;;;;;;;;;;;;;;;16.84;100.00;98559.06;5028112;28;20374;-57
2022/05/30 00:09:26;;;;;;;;;;;;;;;16.62;100.00;98556.97;5026750;28;19936;-57
2022/05/30 00:11:51;;;;;;;;;;;;;;;16.47;100.00;98560.56;5028440;28;19921;-57
2022/05/30 00:14:16;;;;;;;;;;;;;;;16.43;100.00;98559.06;5029424;28;19921;-57
2022/05/30 00:16:42;;;;;;;;;;;;;;;16.14;100.00;98564.31;5030926;28;19959;-57
2022/05/30 00:19:07;;;;;;;;;;;;;;;16.58;100.00;98563.31;5031782;28;19921;-57
2022/05/30 00:21:32;;;;;;;;;;;;;;;16.57;100.00;98564.22;5029517;28;19944;-56
2022/05/30 00:23:57;;;;;;;;;;;;;;;16.65;100.00;98559.38;5010536;28;20443;-57
2022/05/30 00:26:23;;;;;;;;;;;;;;;16.77;100.00;98562.97;5027612;28;20385;-57
2022/05/30 00:28:48;;;;;;;;;;;;;;;16.84;100.00;98558.22;5032168;28;20004;-57
2022/05/30 00:31:14;;;;;;;;;;;;;;;16.84;100.00;98558.22;5026455;28;19927;-56
2022/05/30 00:33:40;;;;;;;;;;;;;;;16.86;100.00;98558.97;5028836;28;19928;-56
2022/05/30 00:36:05;;;;;;;;;;;;;;;16.64;100.00;98555.09;5030882;28;20302;-57
2022/05/30 00:38:30;;;;;;;;;;;;;;;16.66;100.00;98555.84;5028343;28;20509;-56
2022/05/30 00:40:57;;;;;;;;;;;;;;;16.79;100.00;98544.66;5026528;28;19921;-56
2022/05/30 00:43:30;;;;;;;;;;;;;;;16.80;100.00;98549.78;5028615;28;19920;-57
2022/05/30 00:45:56;;;;;;;;;;;;;;;16.75;100.00;98538.00;5010934;28;19920;-56
2022/05/30 00:48:23;;;;;;;;;;;;;;;16.84;100.00;98540.03;5014632;28;19921;-56
2022/05/30 00:50:49;;;;;;;;;;;;;;;16.75;100.00;98538.00;5013247;28;19925;-56
2022/05/30 00:53:14;;;;;;;;;;;;;;;16.65;100.00;98540.31;5010484;28;19925;-56
2022/05/30 00:55:40;;;;;;;;;;;;;;;16.61;100.00;98537.09;5032709;28;20716;-56
2022/05/30 00:58:06;;;;;;;;;;;;;;;16.63;100.00;98535.25;5032628;28;20052;-57
2022/05/30 01:00:31;;;;;;;;;;;;;;;16.65;100.00;98533.38;5011618;28;19968;-57
2022/05/30 01:08:25;;;;;;;;;;;;;;;16.70;100.00;98533.09;5015780;28;19981;-57
2022/05/30 01:10:50;;;;;;;;;;;;;;;16.72;100.00;98536.44;5008672;28;19929;-57
2022/05/30 01:13:15;;;;;;;;;;;;;;;16.81;100.00;98542.81;5027784;28;19928;-57
2022/05/30 01:15:41;;;;;;;;;;;;;;;16.30;100.00;98544.25;5029602;28;20235;-57
2022/05/30 01:18:17;;;;;;;;;;;;;;;16.41;100.00;98540.97;5029253;28;20638;-57
2022/05/30 01:21:01;;;;;;;;;;;;;;;16.62;100.00;98543.13;5013603;28;19925;-57
2022/05/30 01:23:26;;;;;;;;;;;;;;;16.66;100.00;98535.03;5024456;28;19921;-57
2022/05/30 01:26:04;;;;;;;;;;;;;;;16.65;100.00;98542.94;5027292;28;20813;-57
2022/05/30 01:28:40;;;;;;;;;;;;;;;16.67;100.00;98539.31;5030223;28;20627;-57
2022/05/30 01:31:05;;;;;;;;;;;;;;;16.64;100.00;98531.69;5029557;28;19933;-57
2022/05/30 01:33:32;;;;;;;;;;;;;;;16.62;100.00;98528.38;5026636;28;19935;-57
2022/05/30 01:35:57;;;;;;;;;;;;;;;16.70;100.00;98531.31;5027892;28;19921;-57
2022/05/30 01:38:24;;;;;;;;;;;;;;;16.72;100.00;98529.44;5026886;28;19929;-57
2022/05/30 01:40:49;;;;;;;;;;;;;;;16.56;100.00;98525.31;5027089;28;19925;-57
2022/05/30 01:43:15;;;;;;;;;;;;;;;16.40;100.00;98528.06;5030636;28;19982;-57
2022/05/30 01:45:40;;;;;;;;;;;;;;;16.49;100.00;98530.09;5028061;28;19928;-57
2022/05/30 01:48:05;;;;;;;;;;;;;;;16.59;100.00;98531.16;5032219;28;19956;-57
2022/05/30 01:50:31;;;;;;;;;;;;;;;16.49;100.00;98530.94;5027308;28;19925;-57
2022/05/30 01:52:56;;;;;;;;;;;;;;;16.54;100.00;98527.22;5026653;28;19971;-57
2022/05/30 01:55:21;;;;;;;;;;;;;;;16.51;100.00;98528.22;5027427;28;19971;-57
2022/05/30 01:57:46;;;;;;;;;;;;;;;16.41;100.00;98524.56;5026726;28;19928;-57
2022/05/30 02:00:12;;;;;;;;;;;;;;;16.47;100.00;98518.97;5027068;28;19921;-57
2022/05/30 02:02:37;;;;;;;;;;;;;;;16.60;100.00;98519.81;5025155;28;20024;-57
2022/05/30 02:05:03;;;;;;;;;;;;;;;16.52;100.00;98522.94;5025303;28;19955;-57
2022/05/30 02:07:28;;;;;;;;;;;;;;;16.24;100.00;98523.84;5029354;28;20032;-57
2022/05/30 02:09:54;;;;;;;;;;;;;;;16.27;100.00;98528.84;5026553;28;19925;-57
2022/05/30 02:12:21;;;;;;;;;;;;;;;16.23;100.00;98531.75;5011634;28;20225;-57
2022/05/30 02:14:46;;;;;;;;;;;;;;;16.29;100.00;98520.97;5025204;28;19992;-57
2022/05/30 02:17:11;;;;;;;;;;;;;;;16.38;100.00;98520.38;5026752;28;19964;-56
2022/05/30 02:19:37;;;;;;;;;;;;;;;16.40;100.00;98522.88;5032855;28;20326;-57
2022/05/30 02:22:03;;;;;;;;;;;;;;;16.46;100.00;98518.13;5011842;28;19925;-57
2022/05/30 02:24:28;;;;;;;;;;;;;;;16.25;100.00;98530.72;5033735;28;20903;-57
2022/05/30 02:26:54;;;;;;;;;;;;;;;16.03;100.00;98526.03;5032980;28;19932;-57
2022/05/30 02:29:19;;;;;;;;;;;;;;;16.14;100.00;98525.34;5028942;28;19924;-56
2022/05/30 02:31:44;;;;;;;;;;;;;;;16.14;100.00;98525.34;5013119;28;20362;-57
2022/05/30 02:36:54;;;;;;;;;;;;;;;16.21;100.00;98515.41;5028730;28;20757;-57
2022/05/30 02:39:20;;;;;;;;;;;;;;;16.16;100.00;98520.91;5030021;28;20007;-57
2022/05/30 02:41:46;;;;;;;;;;;;;;;16.27;100.00;98515.84;5030313;28;20201;-56
2022/05/30 02:44:12;;;;;;;;;;;;;;;16.39;100.00;98516.84;5029065;28;20293;-57
2022/05/30 02:46:37;;;;;;;;;;;;;;;15.31;100.00;98512.19;5033425;28;19927;-57
2022/05/30 02:49:02;;;;;;;;;;;;;;;15.95;100.00;98506.66;5027686;28;20383;-57
2022/05/30 02:51:28;;;;;;;;;;;;;;;16.06;100.00;98509.44;5029351;28;19986;-57
2022/05/30 02:53:53;;;;;;;;;;;;;;;16.18;100.00;98507.81;5028352;28;19956;-57
2022/05/30 02:56:18;;;;;;;;;;;;;;;16.26;100.00;98506.41;5032946;28;19998;-56
2022/05/30 02:58:44;;;;;;;;;;;;;;;16.20;100.00;98513.75;5030270;28;20382;-56
2022/05/30 03:01:09;;;;;;;;;;;;;;;15.82;100.00;98517.78;5027418;28;19928;-56
2022/05/30 03:03:34;;;;;;;;;;;;;;;15.88;100.00;98512.22;5030066;28;20325;-55
2022/05/30 03:06:00;;;;;;;;;;;;;;;16.13;100.00;98515.91;5029593;28;20109;-57
2022/05/30 03:08:25;;;;;;;;;;;;;;;16.19;100.00;98520.69;5032382;28;19935;-55
2022/05/30 03:10:50;;;;;;;;;;;;;;;15.97;100.00;98517.78;5027716;28;19925;-56
2022/05/30 03:13:16;;;;;;;;;;;;;;;15.89;100.00;98518.25;5030793;28;19916;-55
2022/05/30 03:15:41;;;;;;;;;;;;;;;15.94;100.00;98530.94;5031074;28;19928;-55
2022/05/30 03:18:06;;;;;;;;;;;;;;;16.05;100.00;98528.53;5030809;28;20343;-52
2022/05/30 03:20:32;;;;;;;;;;;;;;;16.17;100.00;98532.97;5029471;28;20031;-53
2022/05/30 03:22:57;;;;;;;;;;;;;;;16.20;100.00;98529.34;5030092;28;19920;-53
2022/05/30 03:25:22;;;;;;;;;;;;;;;16.08;100.00;98538.75;5030144;28;20390;-52
2022/05/30 03:27:48;;;;;;;;;;;;;;;16.19;100.00;98536.28;5026146;28;19943;-50
2022/05/30 03:30:13;;;;;;;;;;;;;;;16.13;100.00;98530.66;5029281;28;20500;-52
2022/05/30 03:32:38;;;;;;;;;;;;;;;16.12;100.00;98529.81;5031085;28;19924;-52
2022/05/30 03:35:04;;;;;;;;;;;;;;;16.03;100.00;98530.38;5029240;28;19925;-52
2022/05/30 03:37:30;;;;;;;;;;;;;;;16.17;100.00;98535.56;5026929;28;19928;-53
2022/05/30 03:39:55;;;;;;;;;;;;;;;16.29;100.00;98532.19;5027018;28;19964;-52
2022/05/30 03:42:20;;;;;;;;;;;;;;;15.97;100.00;98530.78;5028562;28;20382;-52
2022/05/30 03:44:45;;;;;;;;;;;;;;;16.24;100.00;98531.66;5021402;28;20321;-52
2022/05/30 03:47:11;;;;;;;;;;;;;;;16.21;100.00;98534.41;5024982;28;19921;-52
2022/05/30 03:49:36;;;;;;;;;;;;;;;16.17;100.00;98538.16;5019670;28;19925;-51
2022/05/30 03:52:01;;;;;;;;;;;;;;;16.22;100.00;98535.28;5033701;28;19921;-52
2022/05/30 03:54:27;;;;;;;;;;;;;;;16.28;100.00;98540.94;5024359;28;19927;-52
2022/05/30 03:56:52;;;;;;;;;;;;;;;16.22;100.00;98533.50;5024751;28;19939;-52
2022/05/30 03:59:18;;;;;;;;;;;;;;;16.20;100.00;98540.56;5027758;28;19955;-52
2022/05/30 04:01:44;;;;;;;;;;;;;;;16.20;100.00;98543.16;5008793;28;19956;-53
2022/05/30 04:04:10;;;;;;;;;;;;;;;16.19;100.00;98540.66;5026224;28;19921;-53
2022/05/30 04:06:35;;;;;;;;;;;;;;;16.24;100.00;98539.44;5026679;28;19925;-52
2022/05/30 04:09:00;;;;;;;;;;;;;;;16.25;100.00;98535.91;5026042;28;19987;-53
2022/05/30 04:11:25;;;;;;;;;;;;;;;16.26;100.00;98523.75;5027931;28;19917;-50
2022/05/30 04:13:51;;;;;;;;;;;;;;;16.09;100.00;98532.59;5029436;28;19925;-52
2022/05/30 04:16:16;;;;;;;;;;;;;;;16.14;100.00;98533.13;5031338;28;20476;-51
2022/05/30 04:18:42;;;;;;;;;;;;;;;16.17;100.00;98532.97;5025399;28;19928;-53
2022/05/30 04:21:08;;;;;;;;;;;;;;;16.16;100.00;98541.69;5027100;28;19932;-50
2022/05/30 04:23:33;;;;;;;;;;;;;;;16.18;100.00;98534.63;5028447;28;19923;-51
2022/05/30 04:25:59;;;;;;;;;;;;;;;16.24;100.00;98530.81;5012174;28;19944;-52
2022/05/30 04:28:25;;;;;;;;;;;;;;;16.35;100.00;98530.13;5028306;28;19921;-48
2022/05/30 04:30:50;;;;;;;;;;;;;;;16.28;100.00;98533.13;5028774;28;20386;-52
2022/05/30 04:33:15;;;;;;;;;;;;;;;16.23;100.00;98534.34;5032824;28;19920;-52
2022/05/30 04:35:42;;;;;;;;;;;;;;;16.23;100.00;98531.75;5026888;28;20218;-53
2022/05/30 04:38:07;;;;;;;;;;;;;;;16.31;100.00;98530.34;5026921;28;19921;-50
2022/05/30 04:40:33;;;;;;;;;;;;;;;16.48;100.00;98531.03;5024552;28;19917;-50
2022/05/30 04:42:58;;;;;;;;;;;;;;;16.60;100.00;98530.22;5025189;28;19921;-52
2022/05/30 04:45:24;;;;;;;;;;;;;;;16.54;100.00;98538.44;5022156;28;19928;-49
2022/05/30 04:47:49;;;;;;;;;;;;;;;16.39;100.00;98531.59;5027353;28;19924;-49
2022/05/30 04:50:16;;;;;;;;;;;;;;;16.35;100.00;98532.72;5026248;28;19932;-51
2022/05/30 04:52:41;;;;;;;;;;;;;;;16.42;100.00;98531.41;5028633;28;19930;-50
2022/05/30 04:55:07;;;;;;;;;;;;;;;16.44;100.00;98534.75;5027984;28;19921;-49
2022/05/30 04:57:32;;;;;;;;;;;;;;;16.03;100.00;98536.44;5033563;28;19927;-50
2022/05/30 04:59:58;;;;;;;;;;;;;;;15.68;100.00;98546.31;5034808;28;19991;-52
2022/05/30 05:02:23;;;;;;;;;;;;;;;15.80;100.00;98540.41;5032864;28;19924;-52
2022/05/30 05:04:48;;;;;;;;;;;;;;;15.59;100.00;98546.88;5014815;28;19917;-50
2022/05/30 05:07:14;;;;;;;;;;;;;;;15.34;100.00;98550.09;5033959;28;20486;-49
2022/05/30 05:09:46;;;;;;;;;;;;;;;15.11;100.00;98552.25;5027985;28;19932;-49
2022/05/30 05:12:12;;;;;;;;;;;;;;;15.51;100.00;98554.25;5030365;28;20243;-50
2022/05/30 05:14:37;;;;;;;;;;;;;;;14.64;100.00;98556.63;5029255;28;19987;-51
2022/05/30 05:17:02;;;;;;;;;;;;;;;14.76;100.00;98559.47;5030655;28;19939;-52
2022/05/30 05:19:28;;;;;;;;;;;;;;;14.29;100.00;98557.69;5016458;28;19916;-50
2022/05/30 05:21:53;;;;;;;;;;;;;;;13.99;100.00;98567.03;5010880;28;20294;-53
2022/05/30 05:24:18;;;;;;;;;;;;;;;14.33;100.00;98559.22;5030985;28;20535;-53
2022/05/30 05:26:45;;;;;;;;;;;;;;;14.34;100.00;98566.03;5028556;28;19947;-53
2022/05/30 05:29:10;;;;;;;;;;;;;;;13.89;100.00;98567.56;5029069;28;19970;-51
2022/05/30 05:31:35;;;;;;;;;;;;;;;13.92;100.00;98570.03;5028189;28;19927;-51
2022/05/30 05:34:03;;;;;;;;;;;;;;;13.84;100.00;98569.56;5009656;28;20003;-51
2022/05/30 05:36:29;;;;;;;;;;;;;;;13.78;100.00;98569.00;5009512;28;19931;-53
2022/05/30 05:38:54;;;;;;;;;;;;;;;14.00;100.00;98567.84;5028389;28;19928;-53
2022/05/30 05:41:21;;;;;;;;;;;;;;;13.66;100.00;98574.81;5009041;28;19917;-50
2022/05/30 05:43:46;;;;;;;;;;;;;;;13.79;100.00;98575.81;5011058;28;19917;-53
2022/05/30 05:46:13;;;;;;;;;;;;;;;14.26;100.00;98568.22;5024434;28;19916;-51
2022/05/30 05:48:38;;;;;;;;;;;;;;;14.05;100.00;98578.81;5025255;28;19927;-53
2022/05/30 05:51:03;;;;;;;;;;;;;;;14.58;100.00;98574.28;5025732;28;20674;-52
2022/05/30 05:53:29;;;;;;;;;;;;;;;15.17;100.00;98577.03;5035978;28;19917;-49
2022/05/30 05:55:54;;;;;;;;;;;;;;;15.22;100.00;98580.19;5029815;28;20457;-50
2022/05/30 05:58:19;;;;;;;;;;;;;;;15.51;100.00;98577.63;5030569;28;20620;-50
2022/05/30 06:00:44;;;;;;;;;;;;;;;15.60;100.00;98580.53;5035505;28;20910;-54
2022/05/30 06:03:10;;;;;;;;;;;;;;;15.30;100.00;98583.13;5026598;28;20068;-53
2022/05/30 06:05:38;;;;;;;;;;;;;;;15.06;100.00;98581.03;5030955;28;19968;-50
2022/05/30 06:08:03;;;;;;;;;;;;;;;15.25;100.00;98590.38;5032279;28;19921;-53
2022/05/30 06:10:29;;;;;;;;;;;;;;;15.18;100.00;98583.88;5029997;28;19928;-54
2022/05/30 06:12:54;;;;;;;;;;;;;;;15.36;100.00;98587.97;5033684;28;19975;-53
2022/05/30 06:15:19;;;;;;;;;;;;;;;15.41;100.00;98585.94;5029747;28;19949;-54
2022/05/30 06:17:45;;;;;;;;;;;;;;;16.01;100.00;98585.03;5029482;28;20380;-51
2022/05/30 06:20:11;;;;;;;;;;;;;;;16.02;100.00;98584.09;5027864;28;19917;-51
2022/05/30 06:22:37;;;;;;;;;;;;;;;16.46;100.00;98580.50;5027619;28;19979;-52
2022/05/30 06:25:02;;;;;;;;;;;;;;;16.29;100.00;98586.75;5028199;28;20425;-53
2022/05/30 06:27:28;;;;;;;;;;;;;;;16.19;100.00;98588.25;5027616;28;19927;-54
2022/05/30 06:29:53;;;;;;;;;;;;;;;17.11;100.00;98582.44;5030934;28;20004;-53
2022/05/30 06:32:18;;;;;;;;;;;;;;;17.20;100.00;98585.38;5028472;28;20452;-54
2022/05/30 06:34:44;;;;;;;;;;;;;;;17.11;100.00;98579.84;5030638;28;19924;-53
2022/05/30 06:37:10;;;;;;;;;;;;;;;15.94;100.00;98590.66;5032599;28;19917;-53
2022/05/30 06:39:36;;;;;;;;;;;;;;;15.87;100.00;98588.47;5034244;28;20459;-53
2022/05/30 06:42:01;;;;;;;;;;;;;;;15.70;100.00;98596.38;5029145;28;19917;-52
2022/05/30 06:44:27;;;;;;;;;;;;;;;16.09;100.00;98593.16;5032545;28;19955;-53
2022/05/30 06:46:52;;;;;;;;;;;;;;;15.11;100.00;98601.53;5029871;28;19917;-54
2022/05/30 06:49:18;;;;;;;;;;;;;;;15.80;100.00;98596.69;5027931;28;20363;-50
2022/05/30 06:51:44;;;;;;;;;;;;;;;16.59;100.00;98601.38;5029269;28;19921;-50
2022/05/30 06:54:09;;;;;;;;;;;;;;;16.26;100.00;98599.94;5028653;28;20556;-54
2022/05/30 06:56:37;;;;;;;;;;;;;;;15.55;100.00;98605.06;5031091;28;20549;-52
2022/05/30 06:59:02;;;;;;;;;;;;;;;15.87;100.00;98604.03;5026671;28;19917;-52
2022/05/30 07:01:29;;;;;;;;;;;;;;;16.42;100.00;98601.56;5030117;28;20646;-51
2022/05/30 07:03:54;;;;;;;;;;;;;;;15.67;100.00;98610.38;5030754;28;19956;-53
2022/05/30 07:06:27;;;;;;;;;;;;;;;16.06;100.00;98608.13;5031219;28;20608;-51
2022/05/30 07:08:52;;;;;;;;;;;;;;;15.55;100.00;98613.69;5028305;28;19917;-50
2022/05/30 07:11:18;;;;;;;;;;;;;;;16.37;100.00;98601.84;5034113;28;19937;-51
2022/05/30 07:13:44;;;;;;;;;;;;;;;15.77;100.00;98602.09;5028321;28;19979;-53
2022/05/30 07:16:09;;;;;;;;;;;;;;;16.19;100.00;98603.81;5029738;28;20031;-51
2022/05/30 07:18:35;;;;;;;;;;;;;;;16.45;100.00;98607.44;5030820;28;20851;-51
2022/05/30 07:21:03;;;;;;;;;;;;;;;15.88;100.00;98610.91;5031512;28;19916;-50
2022/05/30 07:23:29;;;;;;;;;;;;;;;16.79;100.00;98607.06;5029251;28;19940;-52
2022/05/30 07:25:58;;;;;;;;;;;;;;;15.70;100.00;98622.34;5026821;28;19923;-52
2022/05/30 07:28:25;;;;;;;;;;;;;;;16.76;100.00;98609.84;5028053;28;19917;-51
2022/05/30 07:30:50;;;;;;;;;;;;;;;16.40;100.00;98616.44;5031086;28;19927;-53
2022/05/30 07:33:16;;;;;;;;;;;;;;;15.79;100.00;98621.00;5029790;28;19918;-50
2022/05/30 07:35:42;;;;;;;;;;;;;;;16.22;100.00;98619.25;5030633;28;19967;-51
2022/05/30 07:38:07;;;;;;;;;;;;;;;16.02;100.00;98619.63;5031199;28;19917;-53
2022/05/30 07:40:32;;;;;;;;;;;;;;;16.28;100.00;98623.22;5028934;28;19927;-53
2022/05/30 07:42:57;;;;;;;;;;;;;;;16.57;100.00;98613.63;5028892;28;20043;-51
2022/05/30 07:45:23;;;;;;;;;;;;;;;17.17;100.00;98611.59;5013880;28;21062;-53
2022/05/30 07:47:48;;;;;;;;;;;;;;;17.44;100.00;98609.75;5029272;28;19927;-55
2022/05/30 07:50:13;;;;;;;;;;;;;;;18.68;100.00;98589.97;5017615;28;19927;-53
2022/05/30 07:52:38;;;;;;;;;;;;;;;17.64;100.00;98615.44;5027647;28;20307;-54
2022/05/30 07:55:04;;;;;;;;;;;;;;;16.95;100.00;98618.19;5030473;28;19925;-52
2022/05/30 08:00:14;;;;;;;;;;;;;;;15.89;100.00;98616.91;5028721;28;20119;-49
2022/05/30 08:02:39;;;;;;;;;;;;;;;16.68;100.00;98616.38;5027898;28;19928;-52
2022/05/30 08:05:05;;;;;;;;;;;;;;;16.37;100.00;98616.63;5030141;28;19920;-52
2022/05/30 08:07:30;;;;;;;;;;;;;;;16.75;100.00;98613.41;5028899;28;19923;-53
2022/05/30 08:09:56;;;;;;;;;;;;;;;16.75;100.00;98616.00;5028960;28;19925;-53
2022/05/30 08:12:21;;;;;;;;;;;;;;;16.27;100.00;98619.78;5031049;28;19917;-51
2022/05/30 08:14:46;;;;;;;;;;;;;;;16.06;100.00;98621.13;5030938;28;19917;-54
2022/05/30 08:17:11;;;;;;;;;;;;;;;16.89;100.00;98621.19;5023424;28;19917;-52
2022/05/30 08:19:40;;;;;;;;;;;;;;;17.18;100.00;98623.69;5016439;28;19936;-51
2022/05/30 08:22:05;;;;;;;;;;;;;;;16.09;100.00;98637.34;5031450;28;19928;-53
2022/05/30 08:24:38;;;;;;;;;;;;;;;16.90;100.00;98625.44;5034321;28;19983;-53
2022/05/30 08:27:03;;;;;;;;;;;;;;;16.89;100.00;98619.41;5029211;28;19925;-53
2022/05/30 08:29:29;;;;;;;;;;;;;;;17.18;100.00;98629.72;5027509;28;20341;-52
2022/05/30 08:31:54;;;;;;;;;;;;;;;17.23;100.00;98622.44;5027048;28;20039;-53
2022/05/30 08:34:19;;;;;;;;;;;;;;;16.78;100.00;98631.41;5030781;28;19970;-51
2022/05/30 08:36:45;;;;;;;;;;;;;;;16.48;100.00;98637.59;5029347;28;19920;-54
2022/05/30 08:41:54;;;;;;;;;;;;;;;16.71;100.00;98631.78;5030416;28;20401;-54
2022/05/30 08:44:20;;;;;;;;;;;;;;;16.95;100.00;98632.97;5031382;28;19921;-53
2022/05/30 08:46:50;;;;;;;;;;;;;;;18.13;100.00;98625.97;5031646;28;19931;-50
2022/05/30 08:49:22;;;;;;;;;;;;;;;17.45;100.00;98636.66;5031413;28;19921;-52
2022/05/30 08:51:47;;;;;;;;;;;;;;;17.41;100.00;98636.00;5012604;28;19916;-54
2022/05/30 08:54:31;;;;;;;;;;;;;;;18.01;100.00;98631.19;5033682;28;19928;-52
2022/05/30 08:56:56;;;;;;;;;;;;;;;17.22;100.00;98631.19;5015761;28;20443;-53
2022/05/30 08:59:25;;;;;;;;;;;;;;;17.45;100.00;98632.28;5013066;28;19920;-53
2022/05/30 09:01:50;;;;;;;;;;;;;;;16.47;100.00;98631.56;5032651;28;19917;-53
2022/05/30 09:04:24;;;;;;;;;;;;;;;17.17;100.00;98628.03;5018635;28;19924;-53
2022/05/30 09:06:57;;;;;;;;;;;;;;;17.07;100.00;98633.00;5013580;28;19916;-51
2022/05/30 09:09:22;;;;;;;;;;;;;;;18.06;100.00;98619.50;5013526;28;20391;-54
2022/05/30 09:11:53;;;;;;;;;;;;;;;17.76;100.00;98631.03;5026881;28;20001;-54
2022/05/30 09:14:19;;;;;;;;;;;;;;;17.18;100.00;98631.50;5010051;28;19921;-53
2022/05/30 09:16:47;;;;;;;;;;;;;;;16.89;100.00;98642.00;5013249;28;19917;-53
2022/05/30 09:19:12;;;;;;;;;;;;;;;18.38;100.00;98630.31;5012460;28;19924;-54
2022/05/30 09:21:37;;;;;;;;;;;;;;;17.86;100.00;98635.66;5012213;28;19920;-51
2022/05/30 09:24:03;;;;;;;;;;;;;;;17.89;100.00;98630.25;5029640;28;19932;-53
2022/05/30 09:26:31;;;;;;;;;;;;;;;18.86;95.64;98620.91;5027901;28;20390;-53
2022/05/30 09:29:00;;;;;;;;;;;;;;;18.77;98.59;98623.25;5013412;28;20665;-54
2022/05/30 09:31:28;;;;;;;;;;;;;;;17.65;100.00;98638.78;5012799;28;19932;-51
2022/05/30 09:33:54;;;;;;;;;;;;;;;18.99;99.09;98616.47;5012726;28;20615;-55
2022/05/30 09:36:21;;;;;;;;;;;;;;;18.16;95.54;98627.53;5029102;28;19921;-54
2022/05/30 09:39:00;;;;;;;;;;;;;;;18.23;100.00;98631.38;5033120;28;19944;-55
2022/05/30 09:41:25;;;;;;;;;;;;;;;19.16;93.40;98617.88;5033779;28;20495;-51
2022/05/30 09:43:53;;;;;;;;;;;;;;;19.55;85.85;98608.84;5027820;28;19997;-53
2022/05/30 09:46:24;;;;;;;;;;;;;;;18.84;86.68;98617.56;5028008;28;19912;-54
2022/05/30 09:49:02;;;;;;;;;;;;;;;19.79;80.25;98613.19;5032197;28;20011;-54
2022/05/30 09:51:30;;;;;;;;;;;;;;;19.82;72.00;98608.56;5027725;28;20308;-55
2022/05/30 09:53:56;;;;;;;;;;;;;;;18.79;84.99;98616.16;5030889;28;19928;-57
2022/05/30 09:56:21;;;;;;;;;;;;;;;19.21;84.22;98615.75;5034252;28;19960;-57
2022/05/30 09:58:46;;;;;;;;;;;;;;;18.68;89.74;98620.41;5029144;28;19991;-56
2022/05/30 10:01:12;;;;;;;;;;;;;;;19.72;81.26;98604.16;5033053;28;19921;-56
2022/05/30 10:03:38;;;;;;;;;;;;;;;19.60;76.85;98604.09;5029829;28;19921;-58
2022/05/30 10:06:14;;;;;;;;;;;;;;;21.77;63.28;98591.25;5009545;28;21168;-58
2022/05/30 10:08:40;;;;;;;;;;;;;;;21.44;68.57;98606.22;5027913;28;19913;-56
2022/05/30 10:11:05;;;;;;;;;;;;;;;21.18;62.75;98606.56;5027348;28;19921;-56
2022/05/30 10:13:40;;;;;;;;;;;;;;;21.65;65.77;98614.09;5025890;28;19968;-57
2022/05/30 10:16:07;;;;;;;;;;;;;;;19.56;70.33;98620.94;5030108;28;19991;-57
2022/05/30 10:18:34;;;;;;;;;;;;;;;20.11;72.82;98615.94;5027406;28;19913;-57
2022/05/30 10:21:18;;;;;;;;;;;;;;;19.92;65.92;98610.47;5027961;28;20081;-57
2022/05/30 10:29:32;;;;;;;;;;;;;;;20.57;77.08;98619.38;5029412;28;19948;-58
2022/05/30 10:32:00;;;;;;;;;;;;;;;18.62;84.71;98633.91;5011267;28;19999;-58
2022/05/30 10:34:39;;;;;;;;;;;;;;;17.17;92.96;98648.03;5027975;28;20016;-58
2022/05/30 10:37:10;;;;;;;;;;;;;;;18.33;91.61;98640.22;5025494;28;20094;-58
2022/05/30 10:39:48;;;;;;;;;;;;;;;19.18;90.70;98637.69;5031219;28;20417;-58
2022/05/30 10:42:25;;;;;;;;;;;;;;;18.25;92.89;98642.53;5015120;28;19913;-58
2022/05/30 10:44:54;;;;;;;;;;;;;;;19.56;86.07;98641.00;5030796;28;20438;-58
2022/05/30 10:47:33;;;;;;;;;;;;;;;20.40;79.01;98631.97;5014242;28;20378;-58
2022/05/30 10:50:10;;;;;;;;;;;;;;;21.10;76.53;98635.19;5030280;28;19925;-58
2022/05/30 10:52:35;;;;;;;;;;;;;;;19.58;75.52;98639.94;5032989;28;19948;-58
2022/05/30 10:55:01;;;;;;;;;;;;;;;19.99;83.84;98643.84;5035208;28;19925;-58
2022/05/30 10:57:48;;;;;;;;;;;;;;;20.48;76.84;98640.06;5011591;28;19952;-58
2022/05/30 11:00:14;;;;;;;;;;;;;;;18.80;90.94;98656.94;5013059;28;19917;-58
2022/05/30 11:02:39;;;;;;;;;;;;;;;19.07;88.33;98645.47;5024736;28;19963;-58
2022/05/30 11:05:05;;;;;;;;;;;;;;;19.00;94.45;98652.06;5034763;28;20352;-58
2022/05/30 11:07:35;;;;;;;;;;;;;;;19.55;88.04;98645.41;5032046;28;19917;-58
2022/05/30 11:10:05;;;;;;;;;;;;;;;18.92;88.04;98650.00;5034074;28;19979;-58
2022/05/30 11:12:32;;;;;;;;;;;;;;;19.12;87.35;98645.13;4997975;28;19975;-57
2022/05/30 11:15:16;;;;;;;;;;;;;;;21.44;77.39;98637.66;5020301;28;19952;-58
2022/05/30 11:18:17;;;;;;;;;;;;;;;21.94;64.56;98624.75;5042418;28;19920;-57
2022/05/30 11:20:44;;;;;;;;;;;;;;;21.12;74.64;98635.88;4963848;28;19918;-58
2022/05/30 11:23:10;;;;;;;;;;;;;;;20.84;73.96;98635.47;5003927;28;19917;-59
2022/05/30 11:25:41;;;;;;;;;;;;;;;21.60;73.66;98638.06;5030149;28;19920;-57
2022/05/30 11:28:14;;;;;;;;;;;;;;;21.09;74.23;98634.31;5034559;28;19961;-58
2022/05/30 11:30:41;;;;;;;;;;;;;;;21.15;71.30;98640.88;5016418;28;20378;-58
2022/05/30 11:33:33;;;;;;;;;;;;;;;22.19;68.73;98627.88;5011812;28;20017;-57
2022/05/30 11:36:17;;;;;;;;;;;;;;;21.55;68.16;98648.09;5028049;28;20027;-58
2022/05/30 11:38:57;;;;;;;;;;;;;;;21.98;61.54;98636.63;5026953;28;20323;-58
2022/05/30 11:41:23;;;;;;;;;;;;;;;21.40;54.02;98634.47;5031931;28;19916;-57
2022/05/30 11:44:15;;;;;;;;;;;;;;;22.03;53.64;98637.09;5029297;28;20278;-57
2022/05/30 11:46:48;;;;;;;;;;;;;;;22.11;65.94;98645.09;5005092;28;20463;-57
2022/05/30 11:49:16;;;;;;;;;;;;;;;20.36;66.52;98650.63;5008765;28;19921;-56
2022/05/30 11:52:00;;;;;;;;;;;;;;;21.45;64.86;98655.06;5025177;28;20126;-57
2022/05/30 11:54:44;;;;;;;;;;;;;;;21.80;57.21;98651.28;5012004;28;19955;-57
2022/05/30 11:57:12;;;;;;;;;;;;;;;21.45;68.08;98649.81;5030120;28;19937;-57
2022/05/30 11:59:38;;;;;;;;;;;;;;;20.47;71.05;98661.91;5027907;28;19917;-57
2022/05/30 12:02:04;;;;;;;;;;;;;;;21.88;62.09;98646.25;5031413;28;20266;-57
2022/05/30 12:04:33;;;;;;;;;;;;;;;22.26;56.26;98650.03;5028802;28;19917;-57
2022/05/30 12:07:14;;;;;;;;;;;;;;;20.32;58.16;98660.53;5028811;28;20357;-56
2022/05/30 12:09:45;;;;;;;;;;;;;;;19.04;70.27;98669.16;5031481;28;19940;-57
2022/05/30 12:12:17;;;;;;;;;;;;;;;18.99;81.13;98673.88;5035326;28;19920;-57
2022/05/30 12:14:42;;;;;;;;;;;;;;;19.58;72.41;98658.22;5011418;28;20516;-57
2022/05/30 12:17:26;;;;;;;;;;;;;;;18.50;82.29;98667.75;5027745;28;19917;-57
2022/05/30 12:25:34;;;;;;;;;;;;;;;21.12;68.93;98653.38;5015618;28;20767;-57
2022/05/30 12:27:59;;;;;;;;;;;;;;;20.61;70.75;98662.66;5026305;28;19943;-57
2022/05/30 12:30:33;;;;;;;;;;;;;;;19.14;81.82;98670.16;5016189;28;20720;-57
2022/05/30 12:32:59;;;;;;;;;;;;;;;19.80;72.72;98656.66;5026376;28;19923;-56
2022/05/30 12:35:28;;;;;;;;;;;;;;;21.23;75.13;98662.03;5013219;28;19932;-57
2022/05/30 12:38:03;;;;;;;;;;;;;;;19.51;84.84;98664.84;5011954;28;19913;-57
2022/05/30 12:40:28;;;;;;;;;;;;;;;20.81;75.43;98659.28;5029697;28;19923;-57
2022/05/30 12:42:56;;;;;;;;;;;;;;;19.91;77.89;98667.13;5028212;28;19917;-57
2022/05/30 12:45:33;;;;;;;;;;;;;;;20.51;76.44;98665.13;5036923;28;19916;-55
2022/05/30 12:47:59;;;;;;;;;;;;;;;21.27;71.16;98652.94;5007346;28;19924;-55
2022/05/30 12:50:30;;;;;;;;;;;;;;;20.64;70.07;98665.00;5027891;28;19921;-56
2022/05/30 12:52:56;;;;;;;;;;;;;;;21.97;60.05;98653.31;5028430;28;20329;-56
2022/05/30 12:55:35;;;;;;;;;;;;;;;19.94;74.45;98663.47;5028139;28;19960;-57
2022/05/30 12:58:01;;;;;;;;;;;;;;;19.94;67.50;98661.66;5031784;28;20153;-56
2022/05/30 13:00:46;;;;;;;;;;;;;;;22.38;65.83;98653.41;5008175;28;20039;-57
2022/05/30 13:03:23;;;;;;;;;;;;;;;22.42;58.43;98658.25;5011995;28;20306;-58
2022/05/30 13:06:02;;;;;;;;;;;;;;;21.28;58.21;98664.28;5029922;28;20378;-58
2022/05/30 13:08:47;;;;;;;;;;;;;;;22.39;60.19;98666.38;5011470;28;19916;-58